Time;durP1;ratioP1;P1;durP2;ratioP2;P2;SDS_P1;SDS_P2;PMS_P1;PMS_P2;Temp;Humidity;BMP_temperature;BMP_pressure;BME280_temperature;BME280_humidity;BME280_pressure;Samples;Min_cycle;Max_cycle;Signal;HPM_P1;HPM_P2
2023/06/29 00:01:02;;;;;;;0.10;0.10;;;18.60;99.90;;;;;;5058250;28;20236;-78
2023/06/29 00:03:29;;;;;;;0.10;0.10;;;18.60;99.90;;;;;;5057686;28;20032;-82
2023/06/29 00:05:55;;;;;;;0.10;0.10;;;18.60;99.90;;;;;;5058697;28;20111;-78
2023/06/29 00:08:25;;;;;;;0.10;0.10;;;18.60;99.90;;;;;;5058191;28;20437;-80
2023/06/29 00:10:54;;;;;;;0.10;0.10;;;18.60;99.90;;;;;;5058331;28;20040;-75
2023/06/29 00:13:21;;;;;;;0.10;0.10;;;18.60;99.90;;;;;;5058325;28;20099;-76
2023/06/29 00:15:48;;;;;;;0.10;0.10;;;18.60;99.90;;;;;;5058561;28;20033;-75
2023/06/29 00:18:14;;;;;;;0.38;0.38;;;18.60;99.90;;;;;;5058148;28;20598;-82
2023/06/29 00:20:41;;;;;;;0.10;0.10;;;18.50;99.90;;;;;;5040029;28;20043;-74
2023/06/29 00:23:07;;;;;;;0.10;0.10;;;18.50;99.90;;;;;;5058363;28;20021;-76
2023/06/29 00:25:34;;;;;;;0.10;0.10;;;18.60;99.90;;;;;;5058564;28;20028;-77
2023/06/29 00:28:00;;;;;;;0.10;0.10;;;18.60;99.90;;;;;;5057330;28;20021;-75
2023/06/29 00:30:26;;;;;;;0.10;0.10;;;18.50;99.90;;;;;;5058258;28;20110;-77
2023/06/29 00:32:51;;;;;;;0.10;0.10;;;18.40;99.90;;;;;;5057895;28;20298;-75
2023/06/29 00:35:17;;;;;;;0.10;0.10;;;18.40;99.90;;;;;;5058010;28;20051;-72
2023/06/29 00:37:43;;;;;;;0.10;0.10;;;18.40;99.90;;;;;;5058281;28;20078;-74
2023/06/29 00:40:10;;;;;;;0.88;0.88;;;18.40;99.90;;;;;;5057909;28;20449;-74
2023/06/29 00:42:36;;;;;;;0.10;0.10;;;18.40;99.90;;;;;;5057568;28;20227;-73
2023/06/29 00:45:04;;;;;;;0.10;0.10;;;18.40;99.90;;;;;;5057999;28;20171;-77
2023/06/29 00:47:31;;;;;;;0.10;0.10;;;18.50;99.90;;;;;;5057405;28;20546;-75
2023/06/29 00:49:57;;;;;;;0.10;0.10;;;18.50;99.90;;;;;;5057272;28;20040;-72
2023/06/29 00:52:23;;;;;;;0.10;0.10;;;18.40;99.90;;;;;;5039619;28;20310;-72
2023/06/29 00:54:50;;;;;;;0.20;0.20;;;18.50;99.90;;;;;;5057605;28;20039;-78
2023/06/29 00:57:16;;;;;;;0.10;0.10;;;18.50;99.90;;;;;;5057979;28;20340;-77
2023/06/29 00:59:42;;;;;;;0.20;0.20;;;18.50;99.90;;;;;;5058014;28;20024;-77
2023/06/29 01:02:09;;;;;;;0.10;0.10;;;18.50;99.90;;;;;;5057399;28;20025;-76
2023/06/29 01:04:37;;;;;;;0.10;0.10;;;18.50;99.90;;;;;;5058015;28;20024;-79
2023/06/29 01:07:21;;;;;;;0.10;0.10;;;18.50;99.90;;;;;;5039623;28;20017;-72
2023/06/29 01:09:47;;;;;;;0.10;0.10;;;18.50;99.90;;;;;;5057795;28;20027;-79
2023/06/29 01:12:15;;;;;;;0.38;0.38;;;18.40;99.90;;;;;;5057842;28;20028;-73
2023/06/29 01:14:43;;;;;;;0.10;0.10;;;18.50;99.90;;;;;;5059990;28;20116;-78
2023/06/29 01:17:13;;;;;;;4.40;4.03;;;18.50;99.90;;;;;;5061981;28;20101;-76
2023/06/29 01:19:43;;;;;;;0.38;0.38;;;18.50;99.90;;;;;;5061840;28;20111;-78
2023/06/29 01:22:28;;;;;;;0.10;0.10;;;18.60;99.90;;;;;;5062867;28;20164;-81
2023/06/29 01:24:55;;;;;;;0.10;0.10;;;18.50;99.90;;;;;;5062633;28;20518;-81
2023/06/29 01:27:23;;;;;;;0.45;0.45;;;18.50;99.90;;;;;;5062014;28;20514;-85
2023/06/29 01:29:53;;;;;;;0.10;0.10;;;18.60;99.90;;;;;;5062210;28;20282;-86
2023/06/29 01:32:19;;;;;;;0.10;0.10;;;18.60;99.90;;;;;;5061572;28;20033;-73
2023/06/29 01:34:45;;;;;;;0.10;0.10;;;18.60;99.90;;;;;;5062980;28;20024;-78
2023/06/29 01:37:21;;;;;;;0.13;0.13;;;18.60;99.90;;;;;;5045508;28;20043;-83
2023/06/29 01:40:05;;;;;;;0.10;0.10;;;18.60;99.90;;;;;;5047779;28;20177;-88
2023/06/29 01:42:32;;;;;;;0.10;0.10;;;18.60;99.90;;;;;;5063091;28;20161;-73
2023/06/29 01:45:04;;;;;;;0.22;0.22;;;18.50;99.90;;;;;;5061250;28;20568;-80
2023/06/29 01:47:31;;;;;;;0.10;0.10;;;18.50;99.90;;;;;;5060752;28;20396;-77
2023/06/29 01:49:57;;;;;;;0.20;0.20;;;18.00;99.90;;;;;;5061044;28;20048;-81
2023/06/29 01:52:23;;;;;;;0.10;0.10;;;17.00;99.90;;;;;;5060973;28;20056;-76
2023/06/29 01:54:50;;;;;;;0.10;0.10;;;18.20;99.90;;;;;;5061376;28;20399;-79
2023/06/29 01:57:16;;;;;;;0.10;0.10;;;18.30;99.90;;;;;;5043089;28;20129;-79
2023/06/29 01:59:44;;;;;;;2.13;1.63;;;19.00;99.90;;;;;;5061230;28;20498;-81
2023/06/29 02:02:09;;;;;;;0.10;0.10;;;18.40;99.90;;;;;;5060610;28;20533;-81
2023/06/29 02:04:35;;;;;;;0.10;0.10;;;17.90;99.90;;;;;;5061143;28;20020;-81
2023/06/29 02:07:01;;;;;;;0.10;0.10;;;18.40;99.90;;;;;;5061509;28;20564;-78
2023/06/29 02:09:27;;;;;;;0.10;0.10;;;18.30;99.90;;;;;;5061042;28;20242;-81
2023/06/29 02:11:53;;;;;;;0.10;0.10;;;18.30;99.90;;;;;;5060762;28;20322;-78
2023/06/29 02:14:19;;;;;;;0.10;0.10;;;18.30;99.90;;;;;;5060823;28;20471;-79
2023/06/29 02:16:46;;;;;;;0.10;0.10;;;18.30;99.90;;;;;;5061238;28;20029;-75
2023/06/29 02:19:12;;;;;;;0.47;0.47;;;18.30;99.90;;;;;;5061610;28;20019;-73
2023/06/29 02:21:38;;;;;;;0.68;0.68;;;18.20;99.90;;;;;;5061325;28;20103;-82
2023/06/29 02:24:04;;;;;;;0.10;0.10;;;18.30;99.90;;;;;;5061497;28;20100;-80
2023/06/29 02:26:30;;;;;;;0.38;0.38;;;17.60;99.90;;;;;;5060715;28;20025;-73
2023/06/29 02:28:56;;;;;;;0.20;0.20;;;17.70;99.90;;;;;;5061065;28;20027;-86
2023/06/29 02:31:21;;;;;;;0.10;0.10;;;17.90;99.90;;;;;;5061010;28;20029;-79
2023/06/29 02:33:48;;;;;;;0.10;0.10;;;17.90;99.90;;;;;;5042942;28;20024;-75
2023/06/29 02:36:15;;;;;;;0.30;0.30;;;17.20;99.90;;;;;;5042735;28;20378;-78
2023/06/29 02:38:41;;;;;;;0.10;0.10;;;17.40;99.90;;;;;;5060904;28;20107;-73
2023/06/29 02:41:07;;;;;;;0.10;0.10;;;17.50;99.90;;;;;;5060641;28;20079;-82
2023/06/29 02:43:33;;;;;;;0.17;0.17;;;17.50;99.90;;;;;;5042830;28;20518;-74
2023/06/29 02:45:59;;;;;;;0.25;0.25;;;17.70;99.90;;;;;;5060476;28;20024;-83
2023/06/29 02:48:25;;;;;;;0.10;0.10;;;17.60;99.90;;;;;;5060502;28;20094;-87
2023/06/29 02:50:52;;;;;;;0.10;0.10;;;17.50;99.90;;;;;;5060323;28;20036;-81
2023/06/29 02:53:17;;;;;;;0.10;0.10;;;17.40;99.90;;;;;;5060891;28;20055;-81
2023/06/29 02:55:43;;;;;;;0.10;0.10;;;17.40;99.90;;;;;;5060278;28;20133;-78
2023/06/29 02:58:09;;;;;;;0.25;0.25;;;17.20;99.90;;;;;;5060110;28;20020;-85
2023/06/29 03:00:35;;;;;;;0.10;0.10;;;17.40;99.90;;;;;;5059109;28;20101;-81
2023/06/29 03:03:01;;;;;;;0.10;0.10;;;17.70;99.90;;;;;;5059792;28;20120;-85
2023/06/29 03:05:27;;;;;;;0.10;0.10;;;17.90;99.90;;;;;;5059971;28;20039;-84
2023/06/29 03:07:53;;;;;;;0.17;0.17;;;17.90;99.90;;;;;;5059114;28;20294;-77
2023/06/29 03:10:19;;;;;;;0.10;0.10;;;17.90;99.90;;;;;;5059586;28;20025;-73
2023/06/29 03:12:45;;;;;;;0.10;0.10;;;17.30;99.90;;;;;;5058738;28;20452;-78
2023/06/29 03:15:11;;;;;;;0.10;0.10;;;17.30;99.90;;;;;;5060065;28;20241;-83
2023/06/29 03:17:37;;;;;;;0.10;0.10;;;17.30;99.90;;;;;;5059711;28;20025;-79
2023/06/29 03:20:03;;;;;;;0.10;0.10;;;17.50;99.90;;;;;;5059290;28;20051;-84
2023/06/29 03:22:29;;;;;;;0.10;0.10;;;17.50;99.90;;;;;;5059850;28;20020;-85
2023/06/29 03:24:55;;;;;;;0.10;0.10;;;17.30;99.90;;;;;;5059386;28;20039;-76
2023/06/29 03:27:20;;;;;;;0.10;0.10;;;17.20;99.90;;;;;;5042343;28;20039;-81
2023/06/29 03:29:51;;;;;;;0.10;0.10;;;17.20;99.90;;;;;;5059925;28;20027;-73
2023/06/29 03:32:17;;;;;;;0.10;0.10;;;17.40;99.90;;;;;;5058778;28;20035;-73
2023/06/29 03:34:43;;;;;;;0.10;0.10;;;17.40;99.90;;;;;;5059527;28;20021;-82
2023/06/29 03:37:08;;;;;;;0.10;0.10;;;17.10;99.90;;;;;;5058901;28;20459;-80
2023/06/29 03:39:34;;;;;;;0.10;0.10;;;17.10;99.90;;;;;;5058974;28;20056;-79
2023/06/29 03:42:00;;;;;;;0.10;0.10;;;17.40;99.90;;;;;;5059786;28;20024;-74
2023/06/29 03:44:26;;;;;;;0.17;0.17;;;17.80;99.90;;;;;;5059273;28;20499;-81
2023/06/29 03:46:51;;;;;;;0.10;0.10;;;17.70;99.90;;;;;;5059909;28;20027;-80
2023/06/29 03:49:17;;;;;;;0.10;0.10;;;17.50;99.90;;;;;;5060881;28;20207;-77
2023/06/29 03:51:43;;;;;;;0.10;0.10;;;17.60;99.90;;;;;;5059735;28;20510;-74
2023/06/29 03:54:09;;;;;;;0.10;0.10;;;17.60;99.90;;;;;;5060393;28;20029;-76
2023/06/29 03:56:35;;;;;;;0.10;0.10;;;17.40;99.90;;;;;;5059917;28;20035;-73
2023/06/29 03:59:00;;;;;;;0.10;0.10;;;17.00;99.90;;;;;;5059352;28;20091;-78
2023/06/29 04:01:26;;;;;;;0.28;0.28;;;16.70;99.90;;;;;;5041581;28;20157;-85
2023/06/29 04:03:53;;;;;;;0.10;0.10;;;17.10;99.90;;;;;;5058907;28;20048;-80
2023/06/29 04:06:19;;;;;;;0.10;0.10;;;17.40;99.90;;;;;;5041012;28;20338;-78
2023/06/29 04:08:44;;;;;;;0.10;0.10;;;17.50;99.90;;;;;;5059915;28;20409;-87
2023/06/29 04:11:12;;;;;;;0.10;0.10;;;17.40;99.90;;;;;;5061422;28;20158;-79
2023/06/29 04:13:37;;;;;;;0.30;0.30;;;17.60;99.90;;;;;;5064087;28;20289;-83
2023/06/29 04:16:03;;;;;;;0.10;0.10;;;17.50;99.90;;;;;;5063645;28;20379;-85
2023/06/29 04:18:29;;;;;;;0.10;0.10;;;17.70;99.90;;;;;;5045457;28;20507;-83
2023/06/29 04:20:55;;;;;;;0.10;0.10;;;17.90;99.90;;;;;;5041217;28;20032;-82
2023/06/29 04:23:21;;;;;;;0.60;0.60;;;17.90;99.90;;;;;;5058794;28;20021;-85
2023/06/29 04:25:47;;;;;;;0.10;0.10;;;18.00;99.90;;;;;;5040850;28;20515;-82
2023/06/29 04:28:12;;;;;;;0.10;0.10;;;18.00;99.90;;;;;;5058718;28;20186;-82
2023/06/29 04:30:42;;;;;;;0.10;0.10;;;18.20;99.90;;;;;;5058300;28;20089;-84
2023/06/29 04:33:11;;;;;;;0.10;0.10;;;18.30;99.90;;;;;;5058653;28;20417;-86
2023/06/29 04:35:41;;;;;;;0.10;0.10;;;18.70;99.90;;;;;;5058285;28;20025;-84
2023/06/29 04:38:11;;;;;;;0.10;0.10;;;18.40;99.90;;;;;;5058881;28;20029;-85
2023/06/29 04:40:39;;;;;;;0.10;0.10;;;18.40;99.90;;;;;;5059224;28;20027;-81
2023/06/29 04:43:08;;;;;;;0.52;0.52;;;18.50;99.90;;;;;;5058317;28;20028;-74
2023/06/29 04:45:34;;;;;;;0.20;0.20;;;18.40;99.90;;;;;;5058164;28;20263;-77
2023/06/29 04:48:00;;;;;;;0.20;0.20;;;18.30;99.90;;;;;;5059374;28;20017;-75
2023/06/29 04:50:31;;;;;;;0.30;0.30;;;17.90;99.90;;;;;;5059361;28;20223;-81
2023/06/29 04:52:58;;;;;;;0.10;0.10;;;17.30;99.90;;;;;;5058539;28;20044;-82
2023/06/29 04:55:25;;;;;;;0.40;0.40;;;17.60;99.90;;;;;;5062201;28;20226;-79
2023/06/29 04:57:51;;;;;;;0.10;0.10;;;16.40;99.90;;;;;;5062616;28;20032;-74
2023/06/29 05:00:19;;;;;;;0.10;0.10;;;16.80;99.90;;;;;;5063905;28;20052;-80
2023/06/29 05:02:45;;;;;;;0.10;0.10;;;16.20;99.90;;;;;;5045478;28;20177;-72
2023/06/29 05:05:11;;;;;;;0.17;0.17;;;16.20;99.90;;;;;;5063246;28;20024;-82
2023/06/29 05:07:37;;;;;;;0.10;0.10;;;16.70;99.90;;;;;;5045215;28;20316;-74
2023/06/29 05:10:04;;;;;;;0.10;0.10;;;17.00;99.90;;;;;;5060610;28;20031;-78
2023/06/29 05:12:30;;;;;;;0.10;0.10;;;17.20;99.90;;;;;;5059427;28;20032;-77
2023/06/29 05:14:56;;;;;;;0.10;0.10;;;17.10;99.90;;;;;;5059008;28;20293;-80
2023/06/29 05:17:22;;;;;;;0.10;0.10;;;16.60;99.90;;;;;;5058695;28;20020;-71
2023/06/29 05:19:48;;;;;;;0.10;0.10;;;16.50;99.90;;;;;;5058372;28;20029;-74
2023/06/29 05:22:14;;;;;;;0.10;0.10;;;17.00;99.90;;;;;;5059251;28;20028;-80
2023/06/29 05:24:40;;;;;;;0.10;0.10;;;17.00;99.90;;;;;;5058978;28;20025;-78
2023/06/29 05:27:06;;;;;;;0.10;0.10;;;16.70;99.90;;;;;;5058933;28;20039;-85
2023/06/29 05:29:32;;;;;;;0.10;0.10;;;16.80;99.90;;;;;;5058667;28;20024;-77
2023/06/29 05:31:58;;;;;;;0.68;0.68;;;16.60;99.90;;;;;;5058568;28;20078;-74
2023/06/29 05:34:23;;;;;;;0.10;0.10;;;15.90;99.90;;;;;;5057589;28;20056;-74
2023/06/29 05:36:49;;;;;;;0.10;0.10;;;15.20;99.90;;;;;;5040885;28;20021;-75
2023/06/29 05:39:15;;;;;;;0.10;0.10;;;15.00;99.90;;;;;;5059416;28;20102;-77
2023/06/29 05:41:42;;;;;;;0.13;0.13;;;14.90;99.90;;;;;;5058403;28;20540;-73
2023/06/29 05:44:08;;;;;;;0.10;0.10;;;15.50;99.90;;;;;;5039427;28;20482;-82
2023/06/29 05:46:34;;;;;;;0.17;0.17;;;15.10;99.90;;;;;;5058352;28;20032;-76
2023/06/29 05:49:01;;;;;;;0.10;0.10;;;15.30;99.90;;;;;;5058128;28;20134;-77
2023/06/29 05:51:27;;;;;;;0.10;0.10;;;16.00;99.90;;;;;;5057484;28;20430;-75
2023/06/29 05:53:53;;;;;;;0.10;0.10;;;15.50;99.90;;;;;;5057844;28;20021;-75
2023/06/29 05:56:18;;;;;;;0.10;0.10;;;15.30;99.90;;;;;;5057840;28;20029;-73
2023/06/29 05:58:44;;;;;;;0.10;0.10;;;14.90;99.90;;;;;;5057603;28;20021;-73
2023/06/29 06:01:10;;;;;;;0.25;0.25;;;15.30;99.90;;;;;;5059655;28;20028;-88
2023/06/29 06:03:36;;;;;;;0.20;0.20;;;15.80;99.90;;;;;;5061221;28;20048;-72
2023/06/29 06:06:02;;;;;;;0.10;0.10;;;15.70;99.90;;;;;;5060536;28;20127;-75
2023/06/29 06:08:28;;;;;;;0.10;0.10;;;16.30;99.90;;;;;;5060474;28;20027;-81
2023/06/29 06:10:54;;;;;;;0.10;0.10;;;17.00;99.90;;;;;;5061436;28;20037;-76
2023/06/29 06:13:20;;;;;;;0.10;0.10;;;17.10;99.90;;;;;;5061355;28;20096;-84
2023/06/29 06:15:45;;;;;;;0.10;0.10;;;16.90;99.90;;;;;;5061134;28;20118;-73
2023/06/29 06:18:11;;;;;;;0.30;0.30;;;17.00;99.90;;;;;;5060833;28;20017;-86
2023/06/29 06:20:37;;;;;;;0.10;0.10;;;17.40;99.90;;;;;;5042038;28;20025;-86
2023/06/29 06:23:03;;;;;;;0.10;0.10;;;17.20;99.90;;;;;;5059716;28;20229;-76
2023/06/29 06:25:28;;;;;;;0.10;0.10;;;17.60;99.90;;;;;;5042281;28;20083;-76
2023/06/29 06:27:54;;;;;;;0.10;0.10;;;17.80;99.90;;;;;;5042183;28;20449;-73
2023/06/29 06:30:22;;;;;;;0.82;0.82;;;17.80;99.90;;;;;;5060756;28;20479;-74
2023/06/29 06:32:49;;;;;;;0.10;0.10;;;18.00;99.90;;;;;;5061211;28;20024;-74
2023/06/29 06:35:16;;;;;;;0.10;0.10;;;18.00;99.90;;;;;;5061223;28;20554;-80
2023/06/29 06:37:42;;;;;;;0.10;0.10;;;17.30;99.90;;;;;;5060865;28;20530;-82
2023/06/29 06:40:08;;;;;;;0.10;0.10;;;16.90;99.90;;;;;;5060275;28;20024;-78
2023/06/29 06:42:35;;;;;;;0.10;0.10;;;16.30;99.90;;;;;;5059360;28;20020;-74
2023/06/29 06:45:05;;;;;;;0.10;0.10;;;16.60;99.90;;;;;;5060375;28;20030;-78
2023/06/29 06:47:32;;;;;;;0.10;0.10;;;16.80;99.90;;;;;;5060122;28;20020;-74
2023/06/29 06:49:58;;;;;;;0.20;0.20;;;16.60;99.90;;;;;;5060618;28;20024;-74
2023/06/29 06:52:24;;;;;;;0.90;0.90;;;16.00;99.90;;;;;;5062902;28;20151;-86
2023/06/29 06:54:50;;;;;;;1.95;1.85;;;16.10;99.90;;;;;;5068858;28;20067;-89
2023/06/29 06:57:17;;;;;;;0.10;0.10;;;15.90;99.90;;;;;;5063759;28;20086;-82
2023/06/29 06:59:43;;;;;;;0.10;0.10;;;15.90;99.90;;;;;;5064804;28;20021;-79
2023/06/29 07:02:08;;;;;;;0.10;0.10;;;15.90;99.90;;;;;;5062039;28;20027;-79
2023/06/29 07:04:34;;;;;;;0.10;0.10;;;15.90;99.90;;;;;;5066517;28;20025;-75
2023/06/29 07:07:00;;;;;;;0.22;0.22;;;16.00;99.90;;;;;;5061005;28;20451;-85
2023/06/29 07:09:27;;;;;;;0.10;0.10;;;16.20;99.90;;;;;;5061935;28;20133;-79
2023/06/29 07:11:52;;;;;;;0.20;0.20;;;16.60;99.90;;;;;;5060711;28;20107;-75
2023/06/29 07:14:18;;;;;;;0.10;0.10;;;16.70;99.90;;;;;;5061900;28;20025;-79
2023/06/29 07:16:44;;;;;;;0.10;0.10;;;16.90;99.90;;;;;;5059567;28;20013;-77
2023/06/29 07:19:14;;;;;;;0.13;0.13;;;16.90;99.90;;;;;;5060783;28;20070;-80
2023/06/29 07:21:40;;;;;;;0.10;0.10;;;17.20;99.90;;;;;;5060542;28;20150;-86
2023/06/29 07:24:07;;;;;;;0.10;0.10;;;17.40;99.90;;;;;;5060403;28;20024;-81
2023/06/29 07:26:33;;;;;;;0.10;0.10;;;17.40;99.90;;;;;;5041943;28;20522;-72
2023/06/29 07:28:59;;;;;;;0.10;0.10;;;17.70;99.90;;;;;;5059614;28;20028;-79
2023/06/29 07:31:26;;;;;;;0.10;0.10;;;18.30;99.90;;;;;;5059646;28;20081;-84
2023/06/29 07:33:53;;;;;;;0.10;0.10;;;18.90;99.90;;;;;;5059744;28;20044;-74
2023/06/29 07:36:20;;;;;;;0.10;0.10;;;19.30;99.90;;;;;;5059876;28;20028;-76
2023/06/29 07:38:46;;;;;;;0.10;0.10;;;19.70;99.90;;;;;;5060181;28;20048;-79
2023/06/29 07:41:13;;;;;;;0.10;0.10;;;19.80;99.90;;;;;;5042517;28;20111;-84
2023/06/29 07:43:54;;;;;;;0.10;0.10;;;19.70;99.90;;;;;;5060404;28;20044;-77
2023/06/29 07:46:21;;;;;;;0.10;0.10;;;19.80;99.90;;;;;;5060185;28;20013;-79
2023/06/29 07:48:47;;;;;;;0.55;0.52;;;19.60;99.90;;;;;;5059876;28;20016;-87
2023/06/29 07:51:14;;;;;;;0.10;0.10;;;19.80;99.90;;;;;;5060141;28;20033;-84
2023/06/29 07:53:40;;;;;;;0.10;0.10;;;19.50;99.90;;;;;;5059907;28;20017;-90
2023/06/29 07:56:06;;;;;;;0.10;0.10;;;20.40;99.90;;;;;;5060108;28;20036;-76
2023/06/29 07:58:32;;;;;;;0.10;0.10;;;20.10;99.90;;;;;;5059016;28;20515;-84
2023/06/29 08:00:58;;;;;;;0.10;0.10;;;20.30;99.90;;;;;;5059798;28;20028;-74
2023/06/29 08:03:23;;;;;;;0.10;0.10;;;20.00;99.90;;;;;;5059690;28;20044;-79
2023/06/29 08:05:51;;;;;;;0.10;0.10;;;19.90;99.90;;;;;;5059143;28;20028;-81
2023/06/29 08:08:16;;;;;;;0.10;0.10;;;20.00;99.90;;;;;;5059129;28;20090;-79
2023/06/29 08:10:43;;;;;;;0.10;0.10;;;20.20;99.90;;;;;;5060931;28;20052;-81
2023/06/29 08:13:09;;;;;;;0.95;0.95;;;20.40;99.90;;;;;;5044727;28;20016;-86
2023/06/29 08:15:34;;;;;;;0.10;0.10;;;20.30;99.90;;;;;;5061201;28;20012;-82
2023/06/29 08:18:00;;;;;;;0.10;0.10;;;20.20;99.90;;;;;;5060756;28;20020;-77
2023/06/29 08:20:26;;;;;;;0.43;0.43;;;19.90;99.90;;;;;;5060855;28;20024;-81
2023/06/29 08:22:52;;;;;;;0.10;0.10;;;19.50;99.90;;;;;;5059428;28;20017;-86
2023/06/29 08:25:21;;;;;;;0.10;0.10;;;18.90;99.90;;;;;;5040864;28;20029;-87
2023/06/29 08:27:46;;;;;;;0.10;0.10;;;18.50;99.90;;;;;;5059677;28;20628;-76
2023/06/29 08:30:12;;;;;;;0.10;0.10;;;18.40;99.90;;;;;;5059147;28;20024;-75
2023/06/29 08:32:38;;;;;;;0.10;0.10;;;18.40;99.90;;;;;;5059345;28;20024;-70
2023/06/29 08:35:04;;;;;;;0.10;0.10;;;18.30;99.90;;;;;;5041342;28;20024;-86
2023/06/29 08:37:30;;;;;;;0.10;0.10;;;18.70;99.90;;;;;;5058666;28;20028;-81
2023/06/29 08:39:56;;;;;;;0.10;0.10;;;18.60;99.90;;;;;;5059505;28;20035;-83
2023/06/29 08:42:23;;;;;;;0.10;0.10;;;18.90;99.90;;;;;;5059146;28;20558;-72
2023/06/29 08:44:50;;;;;;;0.10;0.10;;;19.10;99.90;;;;;;5059470;28;20529;-78
2023/06/29 08:47:16;;;;;;;0.10;0.10;;;19.30;99.90;;;;;;5058965;28;20024;-75
2023/06/29 08:49:42;;;;;;;0.10;0.10;;;19.30;99.90;;;;;;5058920;28;20019;-77
2023/06/29 08:52:12;;;;;;;0.10;0.10;;;19.20;99.90;;;;;;5059159;28;20075;-88
2023/06/29 08:54:38;;;;;;;0.52;0.45;;;19.10;99.90;;;;;;5058118;28;20140;-80
2023/06/29 08:57:05;;;;;;;0.30;0.30;;;19.00;99.90;;;;;;5059903;28;20078;-78
2023/06/29 08:59:31;;;;;;;0.10;0.10;;;19.30;99.90;;;;;;5058811;28;20020;-71
2023/06/29 09:02:00;;;;;;;0.25;0.25;;;19.30;99.90;;;;;;5056679;28;20025;-71
2023/06/29 09:04:27;;;;;;;0.15;0.15;;;19.50;99.90;;;;;;5057729;28;20325;-82
2023/06/29 09:06:59;;;;;;;0.10;0.10;;;19.60;99.90;;;;;;5057841;28;20039;-71
2023/06/29 09:09:24;;;;;;;0.52;0.52;;;19.60;99.90;;;;;;5057998;28;20021;-73
2023/06/29 09:11:51;;;;;;;0.10;0.10;;;19.70;99.90;;;;;;5059810;28;20108;-83
2023/06/29 09:14:17;;;;;;;0.10;0.10;;;19.90;99.90;;;;;;5057838;28;20013;-73
2023/06/29 09:16:53;;;;;;;0.10;0.10;;;19.90;99.90;;;;;;5057890;28;20082;-78
2023/06/29 09:19:20;;;;;;;0.10;0.10;;;19.90;99.90;;;;;;5058668;28;20100;-72
2023/06/29 09:21:47;;;;;;;0.10;0.10;;;19.80;99.90;;;;;;5057133;28;20025;-72
2023/06/29 09:24:14;;;;;;;0.25;0.25;;;19.70;99.90;;;;;;5057912;28;20033;-86
2023/06/29 09:26:40;;;;;;;0.10;0.10;;;19.90;99.90;;;;;;5058367;28;20537;-84
2023/06/29 09:29:07;;;;;;;0.20;0.20;;;20.00;99.90;;;;;;5058548;28;20019;-87
2023/06/29 09:31:33;;;;;;;42.53;2.50;;;20.20;99.90;;;;;;5057522;28;20651;-70
2023/06/29 09:34:18;;;;;;;0.10;0.10;;;20.00;99.90;;;;;;5068205;28;20016;-82
2023/06/29 09:36:45;;;;;;;2.15;0.73;;;20.20;99.90;;;;;;5075017;28;20027;-79
2023/06/29 09:39:12;;;;;;;0.10;0.10;;;20.20;99.90;;;;;;5073265;28;20725;-85
2023/06/29 09:41:49;;;;;;;0.10;0.10;;;20.40;99.90;;;;;;5067190;28;20081;-80
2023/06/29 09:44:19;;;;;;;0.10;0.10;;;20.50;99.90;;;;;;5067205;28;20020;-81
2023/06/29 09:46:47;;;;;;;0.10;0.10;;;20.70;99.90;;;;;;5064897;28;20009;-89
2023/06/29 09:49:14;;;;;;;0.10;0.10;;;20.90;99.90;;;;;;5063235;28;20048;-75
2023/06/29 09:51:40;;;;;;;0.10;0.10;;;20.90;99.90;;;;;;5062272;28;20052;-74
2023/06/29 09:54:11;;;;;;;0.10;0.10;;;21.20;99.90;;;;;;5061810;28;20099;-79
2023/06/29 09:56:37;;;;;;;0.10;0.10;;;21.50;99.90;;;;;;5063719;28;20539;-80
2023/06/29 09:59:04;;;;;;;0.10;0.10;;;21.60;99.90;;;;;;5062820;28;20020;-86
2023/06/29 10:01:30;;;;;;;0.35;0.35;;;21.70;99.90;;;;;;5060456;28;20020;-80
2023/06/29 10:03:56;;;;;;;0.10;0.10;;;21.80;99.90;;;;;;5062444;28;20658;-84
2023/06/29 10:06:31;;;;;;;0.20;0.20;;;21.80;99.90;;;;;;5062225;28;20024;-85
2023/06/29 10:08:59;;;;;;;0.43;0.43;;;21.80;99.90;;;;;;5062908;28;20262;-86
2023/06/29 10:11:29;;;;;;;0.32;0.32;;;22.50;99.90;;;;;;5062278;28;20561;-75
2023/06/29 10:14:00;;;;;;;0.20;0.20;;;21.90;99.90;;;;;;5062806;28;20074;-88
2023/06/29 10:16:28;;;;;;;0.28;0.28;;;22.10;99.90;;;;;;5044416;28;20037;-80
2023/06/29 10:19:01;;;;;;;0.52;0.52;;;22.20;99.90;;;;;;5061905;28;20013;-75
2023/06/29 10:21:27;;;;;;;0.10;0.10;;;22.40;99.90;;;;;;5062548;28;20012;-79
2023/06/29 10:23:55;;;;;;;1.17;1.08;;;22.00;99.90;;;;;;5061810;28;20035;-79
2023/06/29 10:26:21;;;;;;;0.10;0.10;;;22.20;99.90;;;;;;5061932;28;20032;-73
2023/06/29 10:28:47;;;;;;;0.10;0.10;;;22.30;99.90;;;;;;5042904;28;20016;-84
2023/06/29 10:31:18;;;;;;;1.15;1.08;;;22.10;99.90;;;;;;5061916;28;20559;-86
2023/06/29 10:33:50;;;;;;;0.10;0.10;;;22.50;99.90;;;;;;5064583;28;20021;-80
2023/06/29 10:36:19;;;;;;;0.10;0.10;;;22.80;99.40;;;;;;5066811;28;20043;-79
2023/06/29 10:38:45;;;;;;;0.10;0.10;;;23.00;98.20;;;;;;5068438;28;20091;-76
2023/06/29 10:41:28;;;;;;;0.10;0.10;;;23.30;99.80;;;;;;5072405;28;20671;-77
2023/06/29 10:44:01;;;;;;;0.10;0.10;;;23.70;98.00;;;;;;5069796;28;20025;-76
2023/06/29 10:46:46;;;;;;;0.08;0.08;;;24.00;97.20;;;;;;5061772;28;20016;-75
2023/06/29 10:49:26;;;;;;;0.13;0.13;;;24.40;95.50;;;;;;5062255;28;20671;-82
2023/06/29 10:51:53;;;;;;;0.10;0.10;;;24.50;94.10;;;;;;5061501;28;20106;-76
2023/06/29 10:54:25;;;;;;;0.10;0.10;;;24.40;93.80;;;;;;5063341;28;20028;-74
2023/06/29 10:57:10;;;;;;;0.20;0.20;;;24.50;94.10;;;;;;5060273;28;20662;-73
2023/06/29 10:59:36;;;;;;;0.10;0.10;;;24.80;93.20;;;;;;5042530;28;20595;-84
2023/06/29 11:02:03;;;;;;;0.10;0.10;;;24.70;93.50;;;;;;5060283;28;20225;-77
2023/06/29 11:04:29;;;;;;;0.00;0.00;;;25.00;94.20;;;;;;5060903;28;20056;-74
2023/06/29 11:06:55;;;;;;;0.00;0.00;;;25.30;93.00;;;;;;5060442;28;20048;-76
2023/06/29 11:09:20;;;;;;;0.10;0.10;;;25.40;92.40;;;;;;5060614;28;20639;-74
2023/06/29 11:11:48;;;;;;;0.10;0.10;;;25.20;91.60;;;;;;5060747;28;20020;-79
2023/06/29 11:14:14;;;;;;;0.00;0.00;;;25.30;91.90;;;;;;5060231;28;20013;-82
2023/06/29 11:16:40;;;;;;;0.17;0.17;;;25.00;91.50;;;;;;5059726;28;20031;-72
2023/06/29 11:19:07;;;;;;;0.03;0.03;;;24.70;92.40;;;;;;5059613;28;20020;-73
2023/06/29 11:21:33;;;;;;;2.60;1.17;;;24.50;93.00;;;;;;5060043;28;20032;-72
2023/06/29 11:23:58;;;;;;;0.60;0.60;;;24.30;93.30;;;;;;5059920;28;20024;-79
2023/06/29 11:26:26;;;;;;;0.10;0.10;;;24.40;91.80;;;;;;5060043;28;20020;-77
2023/06/29 11:28:53;;;;;;;1.27;0.40;;;24.40;92.70;;;;;;5059289;28;20108;-77
2023/06/29 11:31:20;;;;;;;0.63;0.63;;;25.00;92.60;;;;;;5041951;28;20088;-79
2023/06/29 11:33:50;;;;;;;0.28;0.15;;;25.20;91.00;;;;;;5046158;28;20729;-78
2023/06/29 11:36:36;;;;;;;0.10;0.10;;;25.20;90.30;;;;;;5061915;28;20032;-76
2023/06/29 11:39:07;;;;;;;0.98;0.80;;;25.20;90.00;;;;;;5065516;28;20055;-79
2023/06/29 11:41:33;;;;;;;0.10;0.10;;;25.20;87.90;;;;;;5065066;28;20028;-81
2023/06/29 11:44:00;;;;;;;0.10;0.10;;;24.80;89.40;;;;;;5041809;28;20032;-77
2023/06/29 11:46:27;;;;;;;0.15;0.15;;;25.00;90.90;;;;;;5059394;28;20441;-76
2023/06/29 11:48:56;;;;;;;0.10;0.10;;;25.00;89.70;;;;;;5059688;28;20061;-75
2023/06/29 11:51:26;;;;;;;0.00;0.00;;;25.50;89.50;;;;;;5041725;28;20510;-75
2023/06/29 11:53:59;;;;;;;0.30;0.17;;;25.60;88.70;;;;;;5060738;28;20021;-75
2023/06/29 11:56:25;;;;;;;;;;;25.80;88.10;;;;;;5059790;28;20025;-75
2023/06/29 11:58:52;;;;;;;0.10;0.10;;;25.60;87.50;;;;;;5040581;28;20425;-80
2023/06/29 12:01:18;;;;;;;0.10;0.10;;;25.70;88.40;;;;;;5041220;28;20028;-81
2023/06/29 12:03:44;;;;;;;0.00;0.00;;;26.60;86.50;;;;;;5058958;28;20131;-81
2023/06/29 12:06:09;;;;;;;1.83;1.42;;;27.60;85.20;;;;;;5059364;28;20121;-77
2023/06/29 12:08:40;;;;;;;1.70;0.38;;;28.60;82.90;;;;;;5059425;28;20027;-78
2023/06/29 12:11:14;;;;;;;0.38;0.30;;;29.10;80.30;;;;;;5058949;28;20039;-81
2023/06/29 12:13:47;;;;;;;0.08;0.08;;;29.00;76.50;;;;;;5058778;28;20020;-81
2023/06/29 12:16:14;;;;;;;0.00;0.00;;;28.70;78.60;;;;;;5024738;28;20545;-76
2023/06/29 12:18:42;;;;;;;0.10;0.10;;;28.50;76.60;;;;;;5058585;28;20510;-78
2023/06/29 12:21:07;;;;;;;0.30;0.30;;;28.20;75.30;;;;;;5058884;28;20292;-78
2023/06/29 12:23:33;;;;;;;0.13;0.13;;;27.90;75.80;;;;;;5041075;28;20367;-79
2023/06/29 12:25:59;;;;;;;0.10;0.10;;;28.10;76.70;;;;;;5058742;28;20031;-79
2023/06/29 12:28:25;;;;;;;0.35;0.35;;;28.80;77.50;;;;;;5058838;28;20074;-81
2023/06/29 12:30:51;;;;;;;0.80;0.43;;;29.70;74.30;;;;;;5058954;28;20325;-84
2023/06/29 12:33:17;;;;;;;0.10;0.10;;;30.20;72.40;;;;;;5059418;28;20115;-77
2023/06/29 12:35:42;;;;;;;0.30;0.28;;;31.10;71.40;;;;;;5058993;28;20108;-84
2023/06/29 12:38:09;;;;;;;0.10;0.10;;;31.90;69.70;;;;;;5057862;28;20263;-82
2023/06/29 12:40:35;;;;;;;0.10;0.10;;;32.40;67.50;;;;;;5040644;28;20107;-78
2023/06/29 12:43:01;;;;;;;0.10;0.10;;;32.70;65.00;;;;;;5057974;28;20501;-78
2023/06/29 12:45:27;;;;;;;0.10;0.10;;;33.60;65.90;;;;;;5058014;28;20017;-76
2023/06/29 12:47:53;;;;;;;0.10;0.10;;;34.30;65.10;;;;;;5057552;28;20025;-77